Time;durP1;ratioP1;P1;durP2;ratioP2;P2;SDS_P1;SDS_P2;PMS_P1;PMS_P2;Temp;Humidity;BMP_temperature;BMP_pressure;BME280_temperature;BME280_humidity;BME280_pressure;Samples;Min_cycle;Max_cycle;Signal;HPM_P1;HPM_P2
2023/03/10 00:00:23;;;;;;;;;;;9.70;99.90;;;8.51;97.78;97726.56;5028735;28;19936;-77
2023/03/10 00:02:51;;;;;;;;;;;9.70;99.90;;;8.54;98.14;97727.09;5028338;28;20295;-77
2023/03/10 00:05:19;;;;;;;;;;;9.70;99.90;;;8.53;98.09;97723.66;5030280;28;19925;-77
2023/03/10 00:07:49;;;;;;;;;;;9.70;99.90;;;8.53;97.61;97707.72;5029845;28;19929;-77
2023/03/10 00:10:16;;;;;;;;;;;9.70;99.90;;;8.54;97.51;97717.28;5030162;28;20582;-77
2023/03/10 00:12:43;;;;;;;;;;;9.70;99.90;;;8.54;97.39;97708.50;5036346;28;19940;-77
2023/03/10 00:15:12;;;;;;;;;;;9.70;99.90;;;8.54;97.52;97696.03;5029677;28;19928;-78
2023/03/10 00:17:40;;;;;;;;;;;9.70;99.90;;;8.60;98.32;97699.50;5029566;28;20317;-77
2023/03/10 00:20:12;;;;;;;;;;;9.70;99.90;;;8.61;98.35;97693.09;5030484;28;19969;-77
2023/03/10 00:22:40;;;;;;;;;;;9.70;99.90;;;8.63;98.40;97688.31;5036269;28;20327;-78
2023/03/10 00:25:08;;;;;;;;;;;9.80;99.90;;;8.64;98.44;97695.25;5030180;28;19929;-78
2023/03/10 00:27:35;;;;;;;;;;;9.80;99.90;;;8.62;98.22;97687.50;5029525;28;19952;-77
2023/03/10 00:30:03;;;;;;;;;;;9.80;99.90;;;8.65;98.38;97692.31;5030180;28;20020;-77
2023/03/10 00:32:30;;;;;;;;;;;9.80;99.90;;;8.67;98.70;97690.16;5027229;28;19932;-77
2023/03/10 00:34:57;;;;;;;;;;;9.80;99.90;;;8.66;98.48;97683.25;5029149;28;19929;-78
2023/03/10 00:37:26;;;;;;;;;;;9.80;99.90;;;8.66;98.71;97682.47;5044466;28;19929;-78
2023/03/10 00:39:54;;;;;;;;;;;9.80;99.90;;;8.67;98.96;97676.09;5039593;28;19929;-77
2023/03/10 00:42:21;;;;;;;;;;;9.80;99.90;;;8.69;99.38;97682.75;5030360;28;19998;-78
2023/03/10 00:44:48;;;;;;;;;;;9.90;99.90;;;8.70;99.84;97686.19;5025535;28;19948;-77
2023/03/10 00:47:15;;;;;;;;;;;9.80;99.90;;;8.69;99.78;97690.72;5028786;28;20321;-78
2023/03/10 00:49:42;;;;;;;;;;;9.80;99.90;;;8.69;99.65;97706.66;5027832;28;19929;-77
2023/03/10 00:52:09;;;;;;;;;;;9.90;99.90;;;8.70;99.48;97696.81;5037983;28;19928;-77
2023/03/10 00:54:40;;;;;;;;;;;9.90;99.90;;;8.71;99.86;97696.53;5027158;28;20536;-77
2023/03/10 00:57:08;;;;;;;;;;;9.90;99.90;;;8.74;100.00;97701.34;5028929;28;20539;-77
2023/03/10 00:59:35;;;;;;;;;;;10.00;99.90;;;8.75;100.00;97708.25;5027846;28;19929;-78
2023/03/10 01:02:01;;;;;;;;;;;9.90;99.90;;;8.75;100.00;97691.50;5054096;28;19928;-77
2023/03/10 01:04:30;;;;;;;;;;;9.90;99.90;;;8.74;100.00;97704.00;5042995;28;20020;-78
2023/03/10 01:06:57;;;;;;;;;;;9.90;99.90;;;8.73;99.57;97701.59;5036536;28;19929;-78
2023/03/10 01:09:24;;;;;;;;;;;9.90;99.90;;;8.76;99.66;97709.81;5044244;28;19937;-78
2023/03/10 01:11:54;;;;;;;;;;;9.90;99.90;;;8.76;99.45;97699.19;5045865;28;19929;-77
2023/03/10 01:14:21;;;;;;;;;;;9.90;99.90;;;8.80;99.57;97698.66;5031544;28;20305;-78
2023/03/10 01:16:48;;;;;;;;;;;9.90;99.90;;;8.81;99.79;97700.25;5026874;28;20373;-78
2023/03/10 01:19:17;;;;;;;;;;;9.90;99.90;;;8.82;99.46;97707.16;5027961;28;20370;-78
2023/03/10 01:21:44;;;;;;;;;;;10.00;99.90;;;8.81;99.36;97701.06;5033039;28;19924;-78
2023/03/10 01:24:13;;;;;;;;;;;10.00;99.90;;;8.81;99.30;97702.91;5048041;28;19925;-78
2023/03/10 01:26:42;;;;;;;;;;;10.00;99.90;;;8.83;99.43;97703.44;5026584;28;20028;-77
2023/03/10 01:29:10;;;;;;;;;;;10.00;99.90;;;8.84;99.56;97705.84;5028674;28;19925;-78
2023/03/10 01:31:37;;;;;;;;;;;10.00;99.90;;;8.86;99.73;97713.53;5024582;28;20044;-77
2023/03/10 01:34:04;;;;;;;;;;;10.00;99.90;;;8.85;100.00;97719.94;5030092;28;19940;-78
2023/03/10 01:36:31;;;;;;;;;;;10.00;99.90;;;8.86;100.00;97711.66;5026630;28;19968;-78
2023/03/10 01:39:00;;;;;;;;;;;10.00;99.90;;;8.86;99.86;97717.00;5027424;28;19929;-78
2023/03/10 01:41:27;;;;;;;;;;;10.00;99.90;;;8.86;99.58;97709.00;5030990;28;19975;-78
2023/03/10 01:43:55;;;;;;;;;;;10.00;99.90;;;8.86;99.77;97714.34;5030052;28;19933;-77
2023/03/10 01:46:46;;;;;;;;;;;10.00;99.90;;;8.86;99.39;97724.16;5023285;28;20399;-77
2023/03/10 01:49:35;;;;;;;;;;;10.00;99.90;;;8.86;99.31;97722.31;5023181;28;19929;-78
2023/03/10 01:52:06;;;;;;;;;;;10.00;99.90;;;8.86;99.24;97724.97;5035535;28;19929;-77
2023/03/10 01:54:40;;;;;;;;;;;10.00;99.90;;;8.87;99.43;97723.09;5027243;28;19929;-77
2023/03/10 01:57:08;;;;;;;;;;;10.00;99.90;;;8.87;99.15;97712.47;5026038;28;19961;-77
2023/03/10 01:59:35;;;;;;;;;;;10.00;99.90;;;8.87;99.29;97715.13;5025200;28;19929;-77
2023/03/10 02:02:04;;;;;;;;;;;10.00;99.90;;;8.87;98.73;97709.81;5039924;28;20103;-78
2023/03/10 02:04:35;;;;;;;;;;;10.00;99.90;;;8.88;99.14;97703.44;5048003;28;19925;-78
2023/03/10 02:07:04;;;;;;;;;;;10.00;99.90;;;8.89;99.05;97721.00;5029669;28;19929;-77
2023/03/10 02:09:37;;;;;;;;;;;10.00;99.90;;;8.90;98.75;97722.56;5031350;28;19934;-78
2023/03/10 02:12:05;;;;;;;;;;;10.00;99.90;;;8.87;99.01;97709.81;5033280;28;19991;-78
2023/03/10 02:14:34;;;;;;;;;;;10.00;99.90;;;8.89;98.92;97705.84;5047856;28;19935;-77
2023/03/10 02:17:01;;;;;;;;;;;10.00;99.90;;;8.89;98.63;97708.50;5013065;28;19929;-77
2023/03/10 02:19:54;;;;;;;;;;;10.10;99.90;;;8.90;98.32;97698.66;5030171;28;20017;-78
2023/03/10 02:22:21;;;;;;;;;;;10.10;99.90;;;8.90;97.97;97690.69;5030240;28;19929;-78
2023/03/10 02:24:52;;;;;;;;;;;10.10;99.90;;;8.91;98.10;97702.91;5047656;28;19929;-78
2023/03/10 02:27:24;;;;;;;;;;;10.10;99.90;;;8.91;97.74;97702.91;5029592;28;19936;-78
2023/03/10 02:29:57;;;;;;;;;;;10.10;99.90;;;8.93;97.56;97706.06;5046317;28;20043;-78
2023/03/10 02:32:25;;;;;;;;;;;10.10;99.90;;;8.94;97.21;97702.38;5033668;28;19983;-77
2023/03/10 02:34:51;;;;;;;;;;;10.10;99.90;;;8.95;97.10;97704.75;5029907;28;20298;-78
2023/03/10 02:37:24;;;;;;;;;;;10.10;99.90;;;8.94;97.13;97703.16;5032811;28;20354;-78
2023/03/10 02:39:53;;;;;;;;;;;10.10;99.90;;;8.95;97.05;97696.78;5051865;28;20725;-78
2023/03/10 02:42:20;;;;;;;;;;;10.10;99.90;;;8.97;96.96;97693.84;5032044;28;20394;-77
2023/03/10 02:44:49;;;;;;;;;;;10.10;99.90;;;8.96;97.05;97692.25;5030703;28;20032;-78
2023/03/10 02:47:16;;;;;;;;;;;10.10;99.90;;;8.96;96.74;97694.91;5046297;28;19936;-78
2023/03/10 02:49:44;;;;;;;;;;;10.10;99.90;;;8.97;96.87;97691.19;5039860;28;19936;-78
2023/03/10 02:52:19;;;;;;;;;;;10.10;99.90;;;8.97;97.22;97691.97;5027413;28;19956;-78
2023/03/10 02:54:46;;;;;;;;;;;10.10;99.90;;;8.98;97.11;97695.47;5032366;28;20683;-78
2023/03/10 02:57:14;;;;;;;;;;;10.10;99.90;;;8.97;97.34;97686.66;5054584;28;19935;-78
2023/03/10 02:59:41;;;;;;;;;;;10.10;99.90;;;8.99;97.55;97691.72;5030113;28;19929;-78
2023/03/10 03:02:10;;;;;;;;;;;10.10;99.90;;;8.99;97.64;97683.75;5045186;28;20028;-77
2023/03/10 03:04:37;;;;;;;;;;;10.10;99.90;;;8.98;97.80;97680.31;5031358;28;20301;-77
2023/03/10 03:07:04;;;;;;;;;;;10.10;99.90;;;8.99;97.99;97689.88;5029990;28;19987;-77
2023/03/10 03:09:32;;;;;;;;;;;10.10;99.90;;;9.00;98.06;97686.13;5046966;28;20459;-78
2023/03/10 03:12:00;;;;;;;;;;;10.10;99.90;;;9.00;98.02;97680.03;5028230;28;20556;-77
2023/03/10 03:14:27;;;;;;;;;;;10.10;99.90;;;9.00;98.06;97686.13;5030145;28;20044;-77
2023/03/10 03:16:54;;;;;;;;;;;10.10;99.90;;;9.01;97.90;97673.63;5028835;28;19960;-77
2023/03/10 03:19:23;;;;;;;;;;;10.10;99.90;;;9.01;97.77;97678.94;5046192;28;19945;-78
2023/03/10 03:21:50;;;;;;;;;;;10.10;99.90;;;9.00;97.60;97677.38;5044727;28;20298;-77
2023/03/10 03:24:19;;;;;;;;;;;10.10;99.90;;;8.99;97.50;97679.22;5029100;28;19964;-78
2023/03/10 03:26:47;;;;;;;;;;;10.20;99.90;;;9.01;97.56;97673.63;5029346;28;20308;-78
2023/03/10 03:29:18;;;;;;;;;;;10.20;99.90;;;9.01;97.37;97677.09;5039491;28;19933;-78
2023/03/10 03:31:45;;;;;;;;;;;10.10;99.90;;;9.03;97.27;97672.31;5031658;28;19935;-77
2023/03/10 03:34:23;;;;;;;;;;;10.20;99.90;;;9.05;97.21;97668.59;5027941;28;19933;-78
2023/03/10 03:36:54;;;;;;;;;;;10.20;99.90;;;9.05;97.21;97668.59;5041357;28;19929;-77
2023/03/10 03:39:30;;;;;;;;;;;10.20;99.90;;;9.05;97.00;97657.94;5031794;28;19936;-77
2023/03/10 03:42:00;;;;;;;;;;;10.20;99.90;;;9.06;97.30;97672.81;5028747;28;20401;-78
2023/03/10 03:44:32;;;;;;;;;;;10.20;99.90;;;9.07;97.48;97671.75;5029612;28;20187;-78
2023/03/10 03:47:00;;;;;;;;;;;10.20;99.90;;;9.09;97.42;97675.75;5046373;28;19929;-78
2023/03/10 03:49:29;;;;;;;;;;;10.20;99.90;;;9.09;97.47;97675.75;5032830;28;19926;-77
2023/03/10 03:51:56;;;;;;;;;;;10.20;99.90;;;9.10;97.36;97668.56;5045295;28;19929;-78
2023/03/10 03:54:24;;;;;;;;;;;10.20;99.90;;;9.10;97.05;97672.03;5036891;28;19991;-78
2023/03/10 03:56:50;;;;;;;;;;;10.20;99.90;;;9.10;97.17;97668.56;5024617;28;20018;-77
2023/03/10 03:59:18;;;;;;;;;;;10.20;99.90;;;9.09;96.99;97667.78;5045830;28;20013;-77
2023/03/10 04:01:45;;;;;;;;;;;10.20;99.90;;;9.09;97.06;97672.31;5032687;28;20002;-77
2023/03/10 04:04:12;;;;;;;;;;;10.30;99.90;;;9.10;96.86;97672.03;5031453;28;19960;-78
2023/03/10 04:06:41;;;;;;;;;;;10.30;99.90;;;9.11;96.75;97670.16;5041129;28;19929;-78
2023/03/10 04:09:10;;;;;;;;;;;10.30;99.90;;;9.11;96.63;97672.81;5042760;28;20028;-78
2023/03/10 04:11:37;;;;;;;;;;;10.30;99.90;;;9.12;96.40;97671.75;5019795;28;20381;-78
2023/03/10 04:14:04;;;;;;;;;;;10.30;99.90;;;9.12;96.61;97675.19;5043787;23;19937;-79
2023/03/10 04:16:31;;;;;;;;;;;10.30;99.90;;;9.12;96.35;97661.91;5029056;28;19979;-78
2023/03/10 04:18:58;;;;;;;;;;;10.30;99.90;;;9.11;96.22;97667.50;5035630;28;19929;-78
2023/03/10 04:21:26;;;;;;;;;;;10.30;99.90;;;9.10;96.25;97677.34;5029068;28;19925;-78
2023/03/10 04:23:56;;;;;;;;;;;10.30;99.90;;;9.09;96.15;97673.09;5010964;28;20345;-78
2023/03/10 04:26:27;;;;;;;;;;;10.30;99.90;;;9.11;96.21;97667.50;5001073;28;19925;-78
2023/03/10 04:28:54;;;;;;;;;;;10.30;99.90;;;9.10;95.92;97657.94;4998918;28;20085;-78
2023/03/10 04:31:22;;;;;;;;;;;10.30;99.90;;;9.08;95.92;97660.88;4995170;28;19929;-78
2023/03/10 04:33:50;;;;;;;;;;;10.30;99.90;;;9.09;95.88;97653.69;5016404;28;19929;-79
2023/03/10 04:36:19;;;;;;;;;;;10.30;99.90;;;9.10;95.69;97655.28;5012478;28;20323;-79
2023/03/10 04:38:48;;;;;;;;;;;10.20;99.90;;;9.10;95.36;97656.06;5013926;28;19926;-79
2023/03/10 04:41:17;;;;;;;;;;;10.30;99.90;;;9.09;95.11;97665.13;4995229;28;19933;-79
2023/03/10 04:43:45;;;;;;;;;;;10.30;99.90;;;9.09;94.86;97659.00;5015529;28;19936;-79
2023/03/10 04:46:13;;;;;;;;;;;10.30;99.90;;;9.08;94.93;97660.06;5002680;28;19936;-78
2023/03/10 04:48:41;;;;;;;;;;;10.20;99.90;;;9.08;94.86;97660.88;5015620;28;19932;-79
2023/03/10 04:51:11;;;;;;;;;;;10.20;99.90;;;9.10;94.79;97650.75;4994201;28;19945;-78
2023/03/10 04:53:44;;;;;;;;;;;10.30;99.90;;;9.11;94.98;97649.69;5003157;28;20416;-78
2023/03/10 04:56:11;;;;;;;;;;;10.30;99.90;;;9.12;94.86;97647.81;5009259;28;19929;-78
2023/03/10 04:58:41;;;;;;;;;;;10.30;99.90;;;9.11;94.83;97644.34;5001124;28;20056;-78
2023/03/10 05:01:09;;;;;;;;;;;10.30;99.90;;;9.13;94.79;97646.78;4999498;28;19929;-77
2023/03/10 05:03:39;;;;;;;;;;;10.30;99.90;;;9.14;94.77;97651.00;5013355;28;19929;-81
2023/03/10 05:06:12;;;;;;;;;;;10.30;99.90;;;9.16;94.57;97640.88;5006500;28;19932;-82
2023/03/10 05:08:39;;;;;;;;;;;10.30;99.90;;;9.17;94.45;97650.44;5018303;28;20412;-78
2023/03/10 05:11:07;;;;;;;;;;;10.30;99.90;;;9.17;94.34;97647.78;5007727;28;19933;-79
2023/03/10 05:13:34;;;;;;;;;;;10.30;99.90;;;9.18;94.14;97638.78;5020204;28;19936;-79
2023/03/10 05:16:03;;;;;;;;;;;10.30;99.90;;;9.17;93.78;97632.63;5012872;28;19925;-79
2023/03/10 05:18:30;;;;;;;;;;;10.40;99.90;;;9.16;94.00;97633.72;5013234;28;20417;-80
2023/03/10 05:20:58;;;;;;;;;;;10.40;99.90;;;9.16;93.94;97643.56;5008409;28;20409;-80
2023/03/10 05:23:26;;;;;;;;;;;10.30;99.90;;;9.15;93.86;97642.75;5003713;28;19937;-80
2023/03/10 05:25:53;;;;;;;;;;;10.30;99.90;;;9.15;93.84;97626.81;5011788;28;19929;-80
2023/03/10 05:28:22;;;;;;;;;;;10.30;99.90;;;9.16;93.69;97628.38;5006917;28;19926;-83
2023/03/10 05:30:50;;;;;;;;;;;10.40;99.90;;;9.15;93.54;97624.16;4998330;28;19933;-83
2023/03/10 05:33:19;;;;;;;;;;;10.30;99.90;;;9.15;93.15;97624.16;5000240;28;20024;-82
2023/03/10 05:35:46;;;;;;;;;;;10.60;99.90;;;9.15;93.12;97626.00;5002531;28;19933;-83
2023/03/10 05:38:13;;;;;;;;;;;10.30;99.90;;;9.14;92.73;97624.44;5017978;28;19929;-82
2023/03/10 05:40:41;;;;;;;;;;;10.30;99.90;;;9.16;92.68;97625.72;4989348;28;20364;-82
2023/03/10 05:43:08;;;;;;;;;;;10.30;99.90;;;9.13;92.33;97626.28;5001425;28;19929;-82
2023/03/10 05:45:35;;;;;;;;;;;10.30;99.90;;;9.13;91.95;97615.66;5003135;28;19929;-82
2023/03/10 05:48:03;;;;;;;;;;;10.30;99.90;;;9.12;91.96;97614.03;5018117;28;19935;-82
2023/03/10 05:50:31;;;;;;;;;;;10.30;99.90;;;9.04;91.69;97617.28;5009387;28;19976;-81
2023/03/10 05:52:58;;;;;;;;;;;10.30;99.90;;;9.04;91.87;97619.94;5001945;28;20409;-85
2023/03/10 05:55:28;;;;;;;;;;;10.30;99.90;;;9.05;91.94;97613.56;5008711;28;19933;-89
2023/03/10 06:23:47;;;;;;;;;;;10.20;99.90;;;9.05;92.43;97610.91;5042889;22;19929;-96
2023/03/10 06:26:15;;;;;;;;;;;10.20;99.90;;;9.08;92.61;97621.00;5048898;28;19924;-85
2023/03/10 06:28:44;;;;;;;;;;;10.30;99.90;;;9.08;92.51;97625.50;5037242;28;20019;-79
2023/03/10 06:31:14;;;;;;;;;;;10.30;99.90;;;9.08;92.54;97625.50;5039166;28;19940;-80
2023/03/10 06:33:41;;;;;;;;;;;10.30;99.90;;;9.07;92.75;97619.38;5044847;28;19933;-80
2023/03/10 06:36:10;;;;;;;;;;;10.30;99.90;;;9.09;92.68;97635.09;5038673;28;20464;-80
2023/03/10 06:38:37;;;;;;;;;;;10.30;99.90;;;9.10;92.65;97626.03;5038647;28;19933;-80
2023/03/10 06:41:05;;;;;;;;;;;10.30;99.90;;;9.11;92.62;97635.59;5049347;28;20442;-80
2023/03/10 06:43:33;;;;;;;;;;;10.30;99.90;;;9.14;92.83;97645.69;5041447;28;20385;-79
2023/03/10 06:46:03;;;;;;;;;;;10.30;99.90;;;9.14;92.68;97640.38;5042837;28;19936;-80
2023/03/10 06:48:30;;;;;;;;;;;10.30;99.90;;;9.13;92.89;97639.59;5049758;28;19932;-80
2023/03/10 06:50:57;;;;;;;;;;;10.30;99.90;;;9.11;92.94;97636.38;5042125;28;19929;-80
2023/03/10 06:53:24;;;;;;;;;;;10.40;99.90;;;9.12;93.16;97639.84;5041549;28;19929;-80
2023/03/10 06:55:59;;;;;;;;;;;10.30;99.90;;;9.11;93.54;97646.22;5041317;28;19928;-80
2023/03/10 06:58:27;;;;;;;;;;;10.30;99.90;;;9.14;93.68;97645.69;5046165;28;19929;-80
2023/03/10 07:00:54;;;;;;;;;;;10.40;99.90;;;9.13;93.56;97644.09;5044179;28;19940;-83
2023/03/10 07:03:21;;;;;;;;;;;10.40;99.90;;;9.13;93.44;97639.59;5045816;28;20705;-87
2023/03/10 07:05:48;;;;;;;;;;;10.40;99.90;;;9.14;93.59;97643.84;5035630;28;19948;-90
2023/03/10 07:08:15;;;;;;;;;;;10.30;99.90;;;9.16;93.42;97651.53;5037838;28;19924;-87
2023/03/10 07:10:42;;;;;;;;;;;10.30;99.90;;;9.17;93.80;97645.94;5043624;28;21253;-95
2023/03/10 07:53:34;;;;;;;;;;;10.60;99.90;;;9.36;94.19;97686.03;5049624;28;20512;-91
2023/03/10 07:56:04;;;;;;;;;;;10.50;99.90;;;9.36;93.93;97678.03;5058597;28;19925;-93
2023/03/10 07:58:33;;;;;;;;;;;10.60;99.90;;;9.34;93.78;97685.50;5073205;28;19924;-93
2023/03/10 08:01:01;;;;;;;;;;;10.50;99.90;;;9.33;93.89;97688.44;5054407;28;19925;-91
2023/03/10 08:03:32;;;;;;;;;;;10.50;99.90;;;9.36;93.91;97687.88;5051312;28;20011;-92
2023/03/10 08:06:01;;;;;;;;;;;10.60;99.90;;;9.37;93.88;97676.19;5055009;28;20023;-94
2023/03/10 08:08:34;;;;;;;;;;;10.60;99.90;;;9.36;93.92;97685.22;5056243;28;19928;-94
2023/03/10 08:11:02;;;;;;;;;;;10.60;99.90;;;9.36;94.25;97680.69;5033540;28;19925;-92
2023/03/10 08:13:30;;;;;;;;;;;10.60;99.90;;;9.37;94.35;97686.81;5042145;28;19925;-91
2023/03/10 08:16:00;;;;;;;;;;;10.60;99.90;;;9.41;94.86;97693.19;5046855;28;19968;-94
2023/03/10 08:18:35;;;;;;;;;;;10.60;99.90;;;9.42;95.01;97689.44;5036836;28;20027;-92
2023/03/10 08:28:44;;;;;;;;;;;;;;;;;;;;;
2023/03/10 08:31:21;;;;;;;;;;;10.70;99.90;;;9.47;95.36;97687.59;4930405;28;19961;-93
2023/03/10 08:34:00;;;;;;;;;;;10.70;99.90;;;9.50;95.34;97687.03;4999290;28;19937;-94
2023/03/10 08:36:30;;;;;;;;;;;10.70;99.90;;;9.50;95.08;97675.59;5048570;28;20023;-93
2023/03/10 08:39:05;;;;;;;;;;;10.70;99.90;;;9.47;94.85;97682.28;5053557;28;19929;-94
2023/03/10 08:45:37;;;;;;;;;;;10.70;99.90;;;9.48;95.00;97693.72;4952360;28;20005;-93
2023/03/10 08:48:34;;;;;;;;;;;10.60;99.90;;;9.50;95.20;97697.66;5053703;28;19932;-94
2023/03/10 08:51:12;;;;;;;;;;;10.70;99.90;;;9.53;95.36;97694.47;5047631;28;20028;-95
2023/03/10 08:57:28;;;;;;;;;;;;;;;;;;;;;
2023/03/10 09:00:36;;;;;;;;;;;;;;;;;;;;;
2023/03/10 09:04:05;;;;;;;;;;;10.80;99.90;;;9.64;95.60;97695.22;5048917;28;19929;-93
2023/03/10 09:06:36;;;;;;;;;;;10.80;99.90;;;9.64;95.36;97695.22;5053118;28;19929;-88
2023/03/10 09:09:07;;;;;;;;;;;10.80;99.90;;;9.67;95.48;97693.91;5050312;28;19960;-90
2023/03/10 09:11:35;;;;;;;;;;;10.80;99.90;;;9.69;95.45;97691.75;5049390;28;20019;-85
2023/03/10 09:14:04;;;;;;;;;;;10.90;99.90;;;9.70;95.31;97690.66;5046248;28;19929;-82
2023/03/10 09:16:32;;;;;;;;;;;10.90;99.90;;;9.72;95.38;97693.88;5046865;28;19929;-81
2023/03/10 09:19:01;;;;;;;;;;;10.90;99.90;;;9.76;95.75;97693.06;5048160;28;19941;-81
2023/03/10 09:21:30;;;;;;;;;;;10.90;99.90;;;9.75;95.48;97696.75;5040320;28;19933;-81
2023/03/10 09:23:58;;;;;;;;;;;10.90;99.90;;;9.75;95.33;97694.09;5040968;28;19929;-80
2023/03/10 09:26:25;;;;;;;;;;;10.90;99.90;;;9.77;95.38;97699.97;5047081;28;19925;-80
2023/03/10 09:28:53;;;;;;;;;;;10.90;99.90;;;9.78;95.35;97698.88;5048463;28;19928;-80
2023/03/10 09:31:22;;;;;;;;;;;11.00;99.90;;;9.83;95.71;97694.59;5044688;28;19928;-81
2023/03/10 09:33:49;;;;;;;;;;;11.00;99.90;;;9.87;95.94;97698.31;5041051;28;19929;-81
2023/03/10 09:36:17;;;;;;;;;;;11.00;99.90;;;9.92;96.82;97703.59;5047318;28;19929;-80
2023/03/10 09:38:46;;;;;;;;;;;11.10;99.90;;;9.97;97.14;97704.38;5045504;28;19940;-81
2023/03/10 09:41:28;;;;;;;;;;;11.10;99.90;;;10.03;97.62;97707.78;5042980;28;19929;-81
2023/03/10 09:44:02;;;;;;;;;;;11.20;99.90;;;10.09;98.21;97708.56;5047592;28;19925;-81
2023/03/10 09:46:37;;;;;;;;;;;11.20;99.90;;;10.11;98.60;97704.56;5047298;28;20637;-81
2023/03/10 09:49:09;;;;;;;;;;;11.20;99.90;;;10.15;98.29;97708.28;5031394;28;19935;-81
2023/03/10 09:51:39;;;;;;;;;;;11.30;99.90;;;10.20;97.84;97712.75;5039217;28;19935;-81
2023/03/10 09:54:22;;;;;;;;;;;11.30;99.90;;;10.21;97.34;97706.38;5047819;28;19928;-83
2023/03/10 09:56:50;;;;;;;;;;;11.30;99.90;;;10.22;97.10;97706.06;5043623;28;19939;-83
2023/03/10 09:59:20;;;;;;;;;;;11.40;99.90;;;10.25;96.97;97694.91;5045488;28;20381;-82
2023/03/10 10:01:51;;;;;;;;;;;11.40;99.90;;;10.24;96.32;97706.63;5047368;28;19932;-82
2023/03/10 10:04:21;;;;;;;;;;;11.40;99.90;;;10.25;95.69;97710.09;5045626;28;20084;-82
2023/03/10 10:06:49;;;;;;;;;;;11.40;99.90;;;10.28;96.10;97691.66;5046182;28;20032;-82
2023/03/10 10:09:25;;;;;;;;;;;11.40;99.90;;;10.36;96.42;97702.81;5044930;28;20374;-82
2023/03/10 10:11:53;;;;;;;;;;;11.50;99.90;;;10.36;95.73;97692.97;5041518;28;20343;-82
2023/03/10 10:14:22;;;;;;;;;;;11.50;99.90;;;10.39;95.38;97691.59;5061144;22;19971;-81
2023/03/10 10:16:58;;;;;;;;;;;11.50;99.90;;;10.44;94.51;97694.22;5044444;28;19967;-81
2023/03/10 10:19:27;;;;;;;;;;;11.60;99.90;;;10.46;93.00;97697.41;5048425;28;19967;-81
2023/03/10 10:22:01;;;;;;;;;;;11.60;99.90;;;10.46;92.85;97694.75;5051221;28;20008;-81
2023/03/10 10:24:31;;;;;;;;;;;11.60;99.90;;;10.48;93.16;97697.91;5047568;28;19933;-81
2023/03/10 10:27:00;;;;;;;;;;;11.60;99.90;;;10.50;93.56;97691.25;5045572;28;19929;-81
2023/03/10 10:29:32;;;;;;;;;;;11.70;99.90;;;10.55;92.83;97690.41;5047356;28;19928;-81
2023/03/10 10:32:05;;;;;;;;;;;11.70;99.90;;;10.60;92.76;97697.56;5054920;28;19928;-82
2023/03/10 10:34:32;;;;;;;;;;;11.70;99.90;;;10.62;92.73;97695.41;5059634;28;19932;-82
2023/03/10 10:36:59;;;;;;;;;;;11.80;99.90;;;10.61;92.05;97704.50;5051333;28;20438;-81
2023/03/10 10:39:30;;;;;;;;;;;11.70;99.90;;;10.57;90.01;97705.03;5053486;28;19943;-83
2023/03/10 10:42:13;;;;;;;;;;;11.70;99.90;;;10.56;87.98;97703.47;5047910;28;20362;-82
2023/03/10 10:44:42;;;;;;;;;;;11.90;99.40;;;10.57;88.14;97705.03;5046635;28;19951;-83
2023/03/10 10:47:26;;;;;;;;;;;11.70;99.80;;;10.57;88.67;97712.25;5047721;28;19932;-82
2023/03/10 10:49:55;;;;;;;;;;;11.70;99.90;;;10.56;89.61;97706.13;5045875;28;19943;-83
2023/03/10 10:52:25;;;;;;;;;;;11.70;99.90;;;10.59;90.40;97707.44;5045221;28;19974;-82
2023/03/10 10:54:56;;;;;;;;;;;11.80;99.90;;;10.64;90.37;97709.25;5046644;28;19938;-83
2023/03/10 10:57:28;;;;;;;;;;;11.80;99.90;;;10.72;90.28;97706.00;5051695;28;19925;-83
2023/03/10 10:59:55;;;;;;;;;;;11.90;99.90;;;10.79;87.75;97703.81;5059584;28;20351;-83
2023/03/10 11:02:29;;;;;;;;;;;11.90;98.90;;;10.78;86.63;97695.03;5047799;28;19925;-81
2023/03/10 11:05:06;;;;;;;;;;;11.90;98.70;;;10.80;86.27;97694.72;5050414;28;19935;-81
2023/03/10 11:07:33;;;;;;;;;;;11.90;98.50;;;10.83;86.32;97696.81;5043576;28;19932;-83
2023/03/10 11:10:00;;;;;;;;;;;11.90;98.50;;;10.86;86.81;97695.47;5037820;28;19935;-82
2023/03/10 11:12:33;;;;;;;;;;;12.00;98.90;;;10.83;86.08;97692.31;5051076;28;20309;-82
2023/03/10 11:15:18;;;;;;;;;;;11.90;98.30;;;10.81;86.55;97690.97;5040993;28;20015;-82
2023/03/10 11:17:49;;;;;;;;;;;11.90;98.90;;;10.78;86.45;97681.69;5037064;28;19972;-82
2023/03/10 11:20:23;;;;;;;;;;;11.90;98.70;;;10.79;86.07;97688.59;5051360;28;20385;-82
2023/03/10 11:22:55;;;;;;;;;;;11.90;98.30;;;10.78;85.61;97684.34;5056059;28;20023;-82
2023/03/10 11:25:26;;;;;;;;;;;11.90;98.10;;;10.75;83.70;97692.13;5051458;28;19925;-82
2023/03/10 11:28:09;;;;;;;;;;;11.90;97.00;;;10.72;83.48;97682.78;5047747;28;19947;-82
2023/03/10 11:30:38;;;;;;;;;;;11.90;97.20;;;10.68;82.95;97683.63;5042576;28;19974;-82
2023/03/10 11:33:16;;;;;;;;;;;11.80;95.80;;;10.67;82.92;97684.72;5054383;28;19928;-82
2023/03/10 11:35:45;;;;;;;;;;;11.80;96.50;;;10.66;82.92;97681.25;5051206;28;19935;-83
2023/03/10 11:38:21;;;;;;;;;;;11.80;96.60;;;10.70;83.97;97686.81;5051184;28;19925;-82
2023/03/10 11:40:52;;;;;;;;;;;11.80;97.10;;;10.67;82.90;97677.50;5050539;28;19935;-82
2023/03/10 11:43:29;;;;;;;;;;;11.80;96.20;;;10.68;81.88;97670.31;5052133;28;19929;-82
2023/03/10 11:46:00;;;;;;;;;;;11.80;96.00;;;10.63;81.17;97675.69;5050392;28;19932;-82
2023/03/10 11:48:40;;;;;;;;;;;11.80;95.60;;;10.63;82.84;97684.47;5049169;28;19924;-82
2023/03/10 11:51:16;;;;;;;;;;;11.80;96.60;;;10.61;82.85;97697.28;5051104;28;19931;-82
2023/03/10 11:53:46;;;;;;;;;;;11.80;96.60;;;10.54;83.84;97694.97;5067697;28;20321;-82
2023/03/10 11:56:14;;;;;;;;;;;11.70;97.20;;;10.48;85.93;97684.59;5060703;28;19936;-80
2023/03/10 11:58:46;;;;;;;;;;;11.80;98.70;;;10.46;86.97;97682.22;5036491;28;19929;-91
2023/03/10 12:01:16;;;;;;;;;;;11.60;98.90;;;10.43;88.08;97685.44;5047621;28;20062;-79
2023/03/10 12:03:50;;;;;;;;;;;11.60;99.50;;;10.43;88.57;97684.63;5046970;28;19929;-78
2023/03/10 12:06:19;;;;;;;;;;;11.60;99.60;;;10.42;88.96;97669.72;5045786;28;19933;-78
2023/03/10 12:08:52;;;;;;;;;;;11.60;99.70;;;10.41;89.00;97676.16;5047300;28;20387;-78
2023/03/10 12:11:22;;;;;;;;;;;11.60;99.90;;;10.36;88.73;97676.97;5049494;28;20007;-78
2023/03/10 12:13:52;;;;;;;;;;;11.60;99.50;;;10.34;88.80;97676.44;5052343;28;19924;-77
2023/03/10 12:16:22;;;;;;;;;;;11.60;99.50;;;10.32;88.45;97681.25;5046840;28;19929;-78
2023/03/10 12:18:50;;;;;;;;;;;11.60;99.50;;;10.28;88.88;97680.22;5049317;28;19935;-78
2023/03/10 12:21:19;;;;;;;;;;;11.60;99.70;;;10.27;88.84;97678.63;5049256;28;20400;-78
2023/03/10 12:23:48;;;;;;;;;;;11.50;99.80;;;10.28;88.93;97666.91;5056739;28;19932;-78
2023/03/10 12:26:15;;;;;;;;;;;11.50;99.70;;;10.26;89.06;97656.53;5045737;28;19928;-78
2023/03/10 12:28:42;;;;;;;;;;;11.50;99.70;;;10.26;88.58;97667.19;5043062;28;19924;-78
2023/03/10 12:31:14;;;;;;;;;;;11.50;99.50;;;10.27;89.06;97662.66;5048311;28;19940;-78
2023/03/10 12:33:51;;;;;;;;;;;11.50;99.90;;;10.31;89.82;97664.50;5047314;28;20415;-78
2023/03/10 12:36:25;;;;;;;;;;;11.50;99.90;;;10.37;90.40;97661.78;5041574;28;19933;-78
2023/03/10 12:38:52;;;;;;;;;;;11.60;99.90;;;10.34;90.46;97649.81;5045855;28;19928;-79
2023/03/10 12:41:43;;;;;;;;;;;11.60;99.90;;;10.35;90.76;97639.97;5048660;28;20026;-79
2023/03/10 12:44:35;;;;;;;;;;;11.60;99.90;;;10.31;90.42;97651.16;5050468;28;19928;-79
2023/03/10 12:47:19;;;;;;;;;;;11.50;99.90;;;10.29;90.59;97642.66;5050451;28;20662;-78
2023/03/10 12:49:50;;;;;;;;;;;11.50;99.90;;;10.31;90.50;97648.50;5053633;28;19936;-78
2023/03/10 12:52:27;;;;;;;;;;;11.50;99.90;;;10.35;90.79;97631.97;5048323;28;20293;-78
2023/03/10 12:55:04;;;;;;;;;;;11.50;99.90;;;10.34;90.71;97633.03;5048747;28;19935;-78
2023/03/10 12:57:35;;;;;;;;;;;11.60;99.90;;;10.35;90.83;97629.31;5059219;28;19933;-79
2023/03/10 13:00:06;;;;;;;;;;;11.60;99.90;;;10.36;91.13;97622.91;5049418;28;19929;-79
2023/03/10 13:02:39;;;;;;;;;;;11.60;99.90;;;10.38;91.55;97618.06;5047064;28;19932;-79